Portada
METAR-TAF:

METAR-TAF

Aeroports :

Iekaterinburg, Rússia

latitud: 56-50N, longitud: 060-38E, altitud: 237 m

Observació

L'informe es va fer fa 40 minuts, a les 19:00 UTC
Vent 8 kt del Sud/Sud-Oest
Temperatura 3°C
Humitat 65%
Pressió 1015 hPa
Visibilitat 10 km o més
sense núvols per sota de 1500 mi sense presència de cumulonimbus.

METAR: USSS 291900Z 20004MPS CAVOK 03/M03 Q1015 R26R/110060 NOSIG RMK QFE741/0988

Hora: 00:40 (19:40 UTC)

Pronòstic

L'informe es va fer fa 2 hores i 49 minuts, a les 16:51 UTC
Pronòstic vàlid del 29 a les 18 UTC al 30 a les 18 UTC
Vent 6 kt del Sud amb ràfegues de 16 kt
Visibilitat 10 km o més
Núvols disperses a una alçada de 3000 ft
Evolucionant progressivament
l' 30 a les 02 UTC al 30 a les 04 UTC
Vent 6 kt del Sud/Sud-Oest amb ràfegues de 25 kt
Cel ennuvolat a una alçada de 1600 ft

TAF: USSS 291651Z 2918/3018 19003G08MPS 9999 SCT030 BECMG 3002/3004 20003G13MPS BKN016

Observacions i pronòstics meteorològics de més de 4000 aeroports (METAR i TAF).

Les estacions disponibles són els punts grocs i vermells al mapa.

Posi el ratolí al punt desitjat per veure el nom de l'estació.

Feu clic per veure les observacions i els pronòstics meteorològics.

Per canviar el mapa: feu clic els botons verds amb una creu de color negre per apropar; al botó verd amb un guió per allunyar la imatge; o en les fletxes verdes per a mapes adjacents.


METAR-TAF: